sensor_id;sensor_type;location;lat;lon;timestamp;temperature;humidity
14172;DHT22;7165;52.388;4.928;2023-07-24T00:00:46;18.40;99.90
14172;DHT22;7165;52.388;4.928;2023-07-24T00:03:13;18.40;99.90
14172;DHT22;7165;52.388;4.928;2023-07-24T00:05:39;18.40;99.90
14172;DHT22;7165;52.388;4.928;2023-07-24T00:08:06;18.30;99.90
14172;DHT22;7165;52.388;4.928;2023-07-24T00:10:34;18.30;99.90
14172;DHT22;7165;52.388;4.928;2023-07-24T00:13:00;18.20;99.90
14172;DHT22;7165;52.388;4.928;2023-07-24T00:15:28;18.20;99.90
14172;DHT22;7165;52.388;4.928;2023-07-24T00:17:55;18.30;99.90
14172;DHT22;7165;52.388;4.928;2023-07-24T00:20:21;18.30;99.90
14172;DHT22;7165;52.388;4.928;2023-07-24T00:22:49;18.30;99.90
14172;DHT22;7165;52.388;4.928;2023-07-24T00:25:16;18.20;99.90
14172;DHT22;7165;52.388;4.928;2023-07-24T00:27:44;18.20;99.90
14172;DHT22;7165;52.388;4.928;2023-07-24T00:30:10;18.20;99.90
14172;DHT22;7165;52.388;4.928;2023-07-24T00:32:37;18.20;99.90
14172;DHT22;7165;52.388;4.928;2023-07-24T00:35:04;18.30;99.90
14172;DHT22;7165;52.388;4.928;2023-07-24T00:37:30;18.20;99.90
14172;DHT22;7165;52.388;4.928;2023-07-24T00:39:57;18.20;99.90
14172;DHT22;7165;52.388;4.928;2023-07-24T00:42:24;18.20;99.90
14172;DHT22;7165;52.388;4.928;2023-07-24T00:44:51;18.20;99.90
14172;DHT22;7165;52.388;4.928;2023-07-24T00:47:18;18.20;99.90
14172;DHT22;7165;52.388;4.928;2023-07-24T00:49:45;18.10;99.90
14172;DHT22;7165;52.388;4.928;2023-07-24T00:52:11;18.20;99.90
14172;DHT22;7165;52.388;4.928;2023-07-24T00:54:38;18.10;99.90
14172;DHT22;7165;52.388;4.928;2023-07-24T00:57:05;18.10;99.90
14172;DHT22;7165;52.388;4.928;2023-07-24T00:59:32;18.10;99.90
14172;DHT22;7165;52.388;4.928;2023-07-24T01:02:00;18.10;99.90
14172;DHT22;7165;52.388;4.928;2023-07-24T01:04:27;18.10;99.90
14172;DHT22;7165;52.388;4.928;2023-07-24T01:06:53;18.10;99.90
14172;DHT22;7165;52.388;4.928;2023-07-24T01:09:20;18.10;99.90
14172;DHT22;7165;52.388;4.928;2023-07-24T01:11:47;18.10;99.90
14172;DHT22;7165;52.388;4.928;2023-07-24T01:14:18;18.10;99.90
14172;DHT22;7165;52.388;4.928;2023-07-24T01:16:47;18.10;99.90
14172;DHT22;7165;52.388;4.928;2023-07-24T01:19:20;18.10;99.90
14172;DHT22;7165;52.388;4.928;2023-07-24T01:21:52;18.10;99.90
14172;DHT22;7165;52.388;4.928;2023-07-24T01:24:24;18.10;99.90
14172;DHT22;7165;52.388;4.928;2023-07-24T01:26:57;18.10;99.90
14172;DHT22;7165;52.388;4.928;2023-07-24T01:29:23;18.10;99.90
14172;DHT22;7165;52.388;4.928;2023-07-24T01:31:50;18.10;99.90
14172;DHT22;7165;52.388;4.928;2023-07-24T01:34:16;18.10;99.90
14172;DHT22;7165;52.388;4.928;2023-07-24T01:36:43;18.10;99.90
14172;DHT22;7165;52.388;4.928;2023-07-24T01:39:09;18.10;99.90
14172;DHT22;7165;52.388;4.928;2023-07-24T01:41:36;18.10;99.90
14172;DHT22;7165;52.388;4.928;2023-07-24T01:44:04;18.10;99.90
14172;DHT22;7165;52.388;4.928;2023-07-24T01:46:31;18.20;99.90
14172;DHT22;7165;52.388;4.928;2023-07-24T01:48:57;18.10;99.90
14172;DHT22;7165;52.388;4.928;2023-07-24T01:51:24;18.10;99.90
14172;DHT22;7165;52.388;4.928;2023-07-24T01:53:50;18.10;99.90
14172;DHT22;7165;52.388;4.928;2023-07-24T01:56:17;18.20;99.90
14172;DHT22;7165;52.388;4.928;2023-07-24T01:58:44;18.20;99.90
14172;DHT22;7165;52.388;4.928;2023-07-24T02:01:11;18.20;99.90
14172;DHT22;7165;52.388;4.928;2023-07-24T02:03:39;18.20;99.90
14172;DHT22;7165;52.388;4.928;2023-07-24T02:06:06;18.20;99.90
14172;DHT22;7165;52.388;4.928;2023-07-24T02:08:33;18.20;99.90
14172;DHT22;7165;52.388;4.928;2023-07-24T02:11:00;18.20;99.90
14172;DHT22;7165;52.388;4.928;2023-07-24T02:13:26;18.20;99.90
14172;DHT22;7165;52.388;4.928;2023-07-24T02:15:53;18.20;99.90
14172;DHT22;7165;52.388;4.928;2023-07-24T02:18:21;18.20;99.90
14172;DHT22;7165;52.388;4.928;2023-07-24T02:20:50;18.20;99.90
14172;DHT22;7165;52.388;4.928;2023-07-24T02:23:17;18.20;99.90
14172;DHT22;7165;52.388;4.928;2023-07-24T02:25:44;18.10;99.90
14172;DHT22;7165;52.388;4.928;2023-07-24T02:28:10;18.10;99.90
14172;DHT22;7165;52.388;4.928;2023-07-24T02:30:37;18.10;99.90
14172;DHT22;7165;52.388;4.928;2023-07-24T02:33:04;18.10;99.90
14172;DHT22;7165;52.388;4.928;2023-07-24T02:35:32;18.10;99.90
14172;DHT22;7165;52.388;4.928;2023-07-24T02:37:58;18.10;99.90
14172;DHT22;7165;52.388;4.928;2023-07-24T02:40:25;18.10;99.90
14172;DHT22;7165;52.388;4.928;2023-07-24T02:42:51;18.00;99.90
14172;DHT22;7165;52.388;4.928;2023-07-24T02:45:18;18.00;99.90
14172;DHT22;7165;52.388;4.928;2023-07-24T02:47:44;18.00;99.90
14172;DHT22;7165;52.388;4.928;2023-07-24T02:50:11;18.00;99.90
14172;DHT22;7165;52.388;4.928;2023-07-24T02:52:39;18.00;99.90
14172;DHT22;7165;52.388;4.928;2023-07-24T02:55:05;18.10;99.90
14172;DHT22;7165;52.388;4.928;2023-07-24T02:57:32;18.10;99.90
14172;DHT22;7165;52.388;4.928;2023-07-24T02:59:58;18.10;99.90
14172;DHT22;7165;52.388;4.928;2023-07-24T03:02:25;18.10;99.90
14172;DHT22;7165;52.388;4.928;2023-07-24T03:04:51;18.10;99.90
14172;DHT22;7165;52.388;4.928;2023-07-24T03:07:18;18.00;99.90
14172;DHT22;7165;52.388;4.928;2023-07-24T03:09:46;18.00;99.90
14172;DHT22;7165;52.388;4.928;2023-07-24T03:12:13;18.00;99.90
14172;DHT22;7165;52.388;4.928;2023-07-24T03:14:39;18.00;99.90
14172;DHT22;7165;52.388;4.928;2023-07-24T03:17:06;18.00;99.90
14172;DHT22;7165;52.388;4.928;2023-07-24T03:19:32;17.90;99.90
14172;DHT22;7165;52.388;4.928;2023-07-24T03:21:59;18.00;99.90
14172;DHT22;7165;52.388;4.928;2023-07-24T03:24:25;17.90;99.90
14172;DHT22;7165;52.388;4.928;2023-07-24T03:26:54;17.90;99.90
14172;DHT22;7165;52.388;4.928;2023-07-24T03:29:20;17.90;99.90
14172;DHT22;7165;52.388;4.928;2023-07-24T03:31:47;17.90;99.90
14172;DHT22;7165;52.388;4.928;2023-07-24T03:34:14;17.90;99.90
14172;DHT22;7165;52.388;4.928;2023-07-24T03:36:40;17.90;99.90
14172;DHT22;7165;52.388;4.928;2023-07-24T03:39:08;17.90;99.90
14172;DHT22;7165;52.388;4.928;2023-07-24T03:41:35;17.90;99.90
14172;DHT22;7165;52.388;4.928;2023-07-24T03:44:03;17.90;99.90
14172;DHT22;7165;52.388;4.928;2023-07-24T03:46:31;17.80;99.90
14172;DHT22;7165;52.388;4.928;2023-07-24T03:48:58;17.90;99.90
14172;DHT22;7165;52.388;4.928;2023-07-24T03:51:25;17.90;99.90
14172;DHT22;7165;52.388;4.928;2023-07-24T03:53:51;17.90;99.90
14172;DHT22;7165;52.388;4.928;2023-07-24T03:56:18;17.90;99.90
14172;DHT22;7165;52.388;4.928;2023-07-24T03:58:44;17.90;99.90
14172;DHT22;7165;52.388;4.928;2023-07-24T04:01:12;17.90;99.90
14172;DHT22;7165;52.388;4.928;2023-07-24T04:03:39;17.90;99.90
14172;DHT22;7165;52.388;4.928;2023-07-24T04:06:05;18.00;99.90
14172;DHT22;7165;52.388;4.928;2023-07-24T04:08:32;17.90;99.90
14172;DHT22;7165;52.388;4.928;2023-07-24T04:10:58;17.90;99.90
14172;DHT22;7165;52.388;4.928;2023-07-24T04:13:25;18.00;99.90
14172;DHT22;7165;52.388;4.928;2023-07-24T04:15:51;18.00;99.90
14172;DHT22;7165;52.388;4.928;2023-07-24T04:18:19;18.00;99.90
14172;DHT22;7165;52.388;4.928;2023-07-24T04:20:46;18.00;99.90
14172;DHT22;7165;52.388;4.928;2023-07-24T04:23:12;18.00;99.90
14172;DHT22;7165;52.388;4.928;2023-07-24T04:25:39;18.00;99.90
14172;DHT22;7165;52.388;4.928;2023-07-24T04:28:05;18.00;99.90
14172;DHT22;7165;52.388;4.928;2023-07-24T04:30:32;18.00;99.90
14172;DHT22;7165;52.388;4.928;2023-07-24T04:32:59;18.10;99.90
14172;DHT22;7165;52.388;4.928;2023-07-24T04:35:27;18.10;99.90
14172;DHT22;7165;52.388;4.928;2023-07-24T04:37:54;18.10;99.90
14172;DHT22;7165;52.388;4.928;2023-07-24T04:40:22;18.10;99.90
14172;DHT22;7165;52.388;4.928;2023-07-24T04:42:48;18.10;99.90
14172;DHT22;7165;52.388;4.928;2023-07-24T04:45:15;18.10;99.90
14172;DHT22;7165;52.388;4.928;2023-07-24T04:47:42;18.10;99.90
14172;DHT22;7165;52.388;4.928;2023-07-24T04:50:09;18.10;99.90
14172;DHT22;7165;52.388;4.928;2023-07-24T04:52:37;18.10;99.90
14172;DHT22;7165;52.388;4.928;2023-07-24T04:55:03;18.10;99.90
14172;DHT22;7165;52.388;4.928;2023-07-24T04:57:30;18.10;99.90
14172;DHT22;7165;52.388;4.928;2023-07-24T04:59:57;18.10;99.90
14172;DHT22;7165;52.388;4.928;2023-07-24T05:02:23;18.10;99.90
14172;DHT22;7165;52.388;4.928;2023-07-24T05:04:50;18.10;99.90
14172;DHT22;7165;52.388;4.928;2023-07-24T05:07:16;18.10;99.90
14172;DHT22;7165;52.388;4.928;2023-07-24T05:09:44;18.20;99.90
14172;DHT22;7165;52.388;4.928;2023-07-24T05:12:11;18.20;99.90
14172;DHT22;7165;52.388;4.928;2023-07-24T05:14:37;18.20;99.90
14172;DHT22;7165;52.388;4.928;2023-07-24T05:17:04;18.30;99.90
14172;DHT22;7165;52.388;4.928;2023-07-24T05:19:30;18.30;99.90
14172;DHT22;7165;52.388;4.928;2023-07-24T05:21:57;18.40;99.90
14172;DHT22;7165;52.388;4.928;2023-07-24T05:24:24;18.40;99.90
14172;DHT22;7165;52.388;4.928;2023-07-24T05:26:52;18.50;99.90
14172;DHT22;7165;52.388;4.928;2023-07-24T05:29:19;18.50;99.90
14172;DHT22;7165;52.388;4.928;2023-07-24T05:31:45;18.60;99.90
14172;DHT22;7165;52.388;4.928;2023-07-24T05:34:12;18.60;99.90
14172;DHT22;7165;52.388;4.928;2023-07-24T05:36:40;18.70;99.90
14172;DHT22;7165;52.388;4.928;2023-07-24T05:39:06;18.80;99.90
14172;DHT22;7165;52.388;4.928;2023-07-24T05:41:33;18.90;99.90
14172;DHT22;7165;52.388;4.928;2023-07-24T05:44:00;18.90;99.90
14172;DHT22;7165;52.388;4.928;2023-07-24T05:46:27;18.90;99.90
14172;DHT22;7165;52.388;4.928;2023-07-24T05:48:54;19.00;99.90
14172;DHT22;7165;52.388;4.928;2023-07-24T05:51:21;19.10;99.90
14172;DHT22;7165;52.388;4.928;2023-07-24T05:53:48;19.20;99.90
14172;DHT22;7165;52.388;4.928;2023-07-24T05:56:15;19.30;99.90
14172;DHT22;7165;52.388;4.928;2023-07-24T05:58:41;19.30;99.90
14172;DHT22;7165;52.388;4.928;2023-07-24T06:01:09;19.30;99.90
14172;DHT22;7165;52.388;4.928;2023-07-24T06:03:35;19.20;99.90
14172;DHT22;7165;52.388;4.928;2023-07-24T06:06:04;19.20;99.90
14172;DHT22;7165;52.388;4.928;2023-07-24T06:08:30;19.10;99.90
14172;DHT22;7165;52.388;4.928;2023-07-24T06:10:57;19.10;99.90
14172;DHT22;7165;52.388;4.928;2023-07-24T06:13:23;19.20;99.90
14172;DHT22;7165;52.388;4.928;2023-07-24T06:15:50;19.20;99.90
14172;DHT22;7165;52.388;4.928;2023-07-24T06:18:19;19.20;99.90
14172;DHT22;7165;52.388;4.928;2023-07-24T06:20:46;19.30;99.90
14172;DHT22;7165;52.388;4.928;2023-07-24T06:23:15;19.30;99.90
14172;DHT22;7165;52.388;4.928;2023-07-24T06:25:42;19.30;99.90
14172;DHT22;7165;52.388;4.928;2023-07-24T06:28:09;19.30;99.90
14172;DHT22;7165;52.388;4.928;2023-07-24T06:30:35;19.40;99.90
14172;DHT22;7165;52.388;4.928;2023-07-24T06:33:02;19.30;99.90
14172;DHT22;7165;52.388;4.928;2023-07-24T06:35:30;19.30;99.90
14172;DHT22;7165;52.388;4.928;2023-07-24T06:37:57;19.30;99.90
14172;DHT22;7165;52.388;4.928;2023-07-24T06:40:23;19.30;99.90
14172;DHT22;7165;52.388;4.928;2023-07-24T06:42:50;19.30;99.90
14172;DHT22;7165;52.388;4.928;2023-07-24T06:45:16;19.40;99.90
14172;DHT22;7165;52.388;4.928;2023-07-24T06:47:43;19.40;99.90
14172;DHT22;7165;52.388;4.928;2023-07-24T06:50:09;19.30;99.90
14172;DHT22;7165;52.388;4.928;2023-07-24T06:52:37;19.30;99.90
14172;DHT22;7165;52.388;4.928;2023-07-24T06:55:04;19.30;99.90
14172;DHT22;7165;52.388;4.928;2023-07-24T06:57:31;19.40;99.90
14172;DHT22;7165;52.388;4.928;2023-07-24T06:59:57;19.50;99.90
14172;DHT22;7165;52.388;4.928;2023-07-24T07:02:24;19.50;99.90
14172;DHT22;7165;52.388;4.928;2023-07-24T07:04:50;19.60;99.90
14172;DHT22;7165;52.388;4.928;2023-07-24T07:07:17;19.60;99.90
14172;DHT22;7165;52.388;4.928;2023-07-24T07:09:45;19.60;99.90
14172;DHT22;7165;52.388;4.928;2023-07-24T07:12:11;19.60;99.90
14172;DHT22;7165;52.388;4.928;2023-07-24T07:14:38;19.60;99.90
14172;DHT22;7165;52.388;4.928;2023-07-24T07:17:04;19.60;99.90
14172;DHT22;7165;52.388;4.928;2023-07-24T07:19:31;19.60;99.90
14172;DHT22;7165;52.388;4.928;2023-07-24T07:21:57;19.60;99.90
14172;DHT22;7165;52.388;4.928;2023-07-24T07:24:24;19.60;99.90
14172;DHT22;7165;52.388;4.928;2023-07-24T07:26:52;19.60;99.90
14172;DHT22;7165;52.388;4.928;2023-07-24T07:29:18;19.60;99.90
14172;DHT22;7165;52.388;4.928;2023-07-24T07:31:45;19.60;99.90
14172;DHT22;7165;52.388;4.928;2023-07-24T07:34:12;19.70;99.90
14172;DHT22;7165;52.388;4.928;2023-07-24T07:36:38;19.80;99.90
14172;DHT22;7165;52.388;4.928;2023-07-24T07:39:05;20.00;99.90
14172;DHT22;7165;52.388;4.928;2023-07-24T07:41:31;20.10;99.90
14172;DHT22;7165;52.388;4.928;2023-07-24T07:43:59;20.20;99.90
14172;DHT22;7165;52.388;4.928;2023-07-24T07:46:26;20.20;99.90
14172;DHT22;7165;52.388;4.928;2023-07-24T07:48:52;20.30;99.90
14172;DHT22;7165;52.388;4.928;2023-07-24T07:51:19;20.30;99.90
14172;DHT22;7165;52.388;4.928;2023-07-24T07:53:45;20.30;99.90
14172;DHT22;7165;52.388;4.928;2023-07-24T07:56:12;20.40;99.90
14172;DHT22;7165;52.388;4.928;2023-07-24T07:58:38;20.30;99.90
14172;DHT22;7165;52.388;4.928;2023-07-24T08:01:06;20.20;99.90
14172;DHT22;7165;52.388;4.928;2023-07-24T08:03:33;20.20;99.90
14172;DHT22;7165;52.388;4.928;2023-07-24T08:06:00;20.10;99.90
14172;DHT22;7165;52.388;4.928;2023-07-24T08:08:27;20.10;99.90
14172;DHT22;7165;52.388;4.928;2023-07-24T08:10:53;20.30;99.90
14172;DHT22;7165;52.388;4.928;2023-07-24T08:13:20;20.70;99.90
14172;DHT22;7165;52.388;4.928;2023-07-24T08:15:46;21.10;99.90
14172;DHT22;7165;52.388;4.928;2023-07-24T08:18:14;21.60;99.90
14172;DHT22;7165;52.388;4.928;2023-07-24T08:20:41;21.90;99.90
14172;DHT22;7165;52.388;4.928;2023-07-24T08:23:07;22.10;99.90
14172;DHT22;7165;52.388;4.928;2023-07-24T08:25:34;22.20;99.90
14172;DHT22;7165;52.388;4.928;2023-07-24T08:28:01;22.20;99.90
14172;DHT22;7165;52.388;4.928;2023-07-24T08:30:27;22.30;99.90
14172;DHT22;7165;52.388;4.928;2023-07-24T08:32:54;22.20;99.90
14172;DHT22;7165;52.388;4.928;2023-07-24T08:35:22;21.90;99.90
14172;DHT22;7165;52.388;4.928;2023-07-24T08:37:48;21.70;99.90
14172;DHT22;7165;52.388;4.928;2023-07-24T08:40:15;21.80;99.90
14172;DHT22;7165;52.388;4.928;2023-07-24T08:42:42;21.80;99.90
14172;DHT22;7165;52.388;4.928;2023-07-24T08:45:09;22.00;99.90
14172;DHT22;7165;52.388;4.928;2023-07-24T08:47:37;22.20;99.90
14172;DHT22;7165;52.388;4.928;2023-07-24T08:50:05;22.60;99.90
14172;DHT22;7165;52.388;4.928;2023-07-24T08:52:33;22.90;99.90
14172;DHT22;7165;52.388;4.928;2023-07-24T08:54:59;23.20;99.90
14172;DHT22;7165;52.388;4.928;2023-07-24T08:57:29;23.20;99.90
14172;DHT22;7165;52.388;4.928;2023-07-24T08:59:55;22.90;99.90
14172;DHT22;7165;52.388;4.928;2023-07-24T09:02:23;22.60;99.90
14172;DHT22;7165;52.388;4.928;2023-07-24T09:04:49;22.20;99.90
14172;DHT22;7165;52.388;4.928;2023-07-24T09:07:16;22.00;99.90
14172;DHT22;7165;52.388;4.928;2023-07-24T09:09:46;22.10;99.90
14172;DHT22;7165;52.388;4.928;2023-07-24T09:12:14;22.20;99.90
14172;DHT22;7165;52.388;4.928;2023-07-24T09:14:41;22.10;99.90
14172;DHT22;7165;52.388;4.928;2023-07-24T09:17:10;22.30;99.90
14172;DHT22;7165;52.388;4.928;2023-07-24T09:19:38;22.90;99.90
14172;DHT22;7165;52.388;4.928;2023-07-24T09:22:08;23.40;99.90
14172;DHT22;7165;52.388;4.928;2023-07-24T09:24:35;23.80;99.90
14172;DHT22;7165;52.388;4.928;2023-07-24T09:27:04;23.80;99.90
14172;DHT22;7165;52.388;4.928;2023-07-24T09:29:31;23.50;99.90
14172;DHT22;7165;52.388;4.928;2023-07-24T09:31:58;23.10;99.90
14172;DHT22;7165;52.388;4.928;2023-07-24T09:34:24;22.80;99.90
14172;DHT22;7165;52.388;4.928;2023-07-24T09:36:51;22.50;99.90
14172;DHT22;7165;52.388;4.928;2023-07-24T09:39:22;22.40;99.90
14172;DHT22;7165;52.388;4.928;2023-07-24T09:41:48;22.40;99.90
14172;DHT22;7165;52.388;4.928;2023-07-24T09:44:16;22.30;99.90
14172;DHT22;7165;52.388;4.928;2023-07-24T09:46:43;22.20;99.90
14172;DHT22;7165;52.388;4.928;2023-07-24T09:49:10;22.50;99.90
14172;DHT22;7165;52.388;4.928;2023-07-24T09:51:37;22.90;99.90
14172;DHT22;7165;52.388;4.928;2023-07-24T09:54:05;23.30;99.90
14172;DHT22;7165;52.388;4.928;2023-07-24T09:56:33;23.70;99.90
14172;DHT22;7165;52.388;4.928;2023-07-24T09:59:00;24.10;99.90
14172;DHT22;7165;52.388;4.928;2023-07-24T10:01:31;24.30;99.90
14172;DHT22;7165;52.388;4.928;2023-07-24T10:03:59;24.50;99.90
14172;DHT22;7165;52.388;4.928;2023-07-24T10:06:26;24.60;99.90
14172;DHT22;7165;52.388;4.928;2023-07-24T10:08:54;24.70;99.90
14172;DHT22;7165;52.388;4.928;2023-07-24T10:11:21;24.60;99.90
14172;DHT22;7165;52.388;4.928;2023-07-24T10:13:48;24.70;99.90
14172;DHT22;7165;52.388;4.928;2023-07-24T10:16:15;25.10;99.90
14172;DHT22;7165;52.388;4.928;2023-07-24T10:18:43;25.20;99.90
14172;DHT22;7165;52.388;4.928;2023-07-24T10:21:10;25.30;99.90
14172;DHT22;7165;52.388;4.928;2023-07-24T10:23:37;25.70;99.90
14172;DHT22;7165;52.388;4.928;2023-07-24T10:26:06;25.90;99.90
14172;DHT22;7165;52.388;4.928;2023-07-24T10:28:34;25.90;99.90
14172;DHT22;7165;52.388;4.928;2023-07-24T10:31:04;25.60;99.90
14172;DHT22;7165;52.388;4.928;2023-07-24T10:33:34;25.00;99.90
14172;DHT22;7165;52.388;4.928;2023-07-24T10:36:07;24.50;99.90
14172;DHT22;7165;52.388;4.928;2023-07-24T10:38:36;24.00;99.90
14172;DHT22;7165;52.388;4.928;2023-07-24T10:41:03;23.70;99.90
14172;DHT22;7165;52.388;4.928;2023-07-24T10:43:39;23.50;99.90
14172;DHT22;7165;52.388;4.928;2023-07-24T10:46:06;23.70;99.90
14172;DHT22;7165;52.388;4.928;2023-07-24T10:48:32;24.00;99.90
14172;DHT22;7165;52.388;4.928;2023-07-24T10:51:05;24.20;99.90
14172;DHT22;7165;52.388;4.928;2023-07-24T10:53:34;24.50;99.90
14172;DHT22;7165;52.388;4.928;2023-07-24T10:56:00;24.50;99.90
14172;DHT22;7165;52.388;4.928;2023-07-24T10:58:27;24.30;99.90
14172;DHT22;7165;52.388;4.928;2023-07-24T11:00:54;24.50;99.90
14172;DHT22;7165;52.388;4.928;2023-07-24T11:03:21;24.80;99.90
14172;DHT22;7165;52.388;4.928;2023-07-24T11:05:47;24.90;99.90
14172;DHT22;7165;52.388;4.928;2023-07-24T11:08:14;24.60;99.90
14172;DHT22;7165;52.388;4.928;2023-07-24T11:10:45;24.20;99.90
14172;DHT22;7165;52.388;4.928;2023-07-24T11:13:12;23.70;99.90
14172;DHT22;7165;52.388;4.928;2023-07-24T11:15:39;23.30;99.90
14172;DHT22;7165;52.388;4.928;2023-07-24T11:18:05;22.90;99.90
14172;DHT22;7165;52.388;4.928;2023-07-24T11:20:33;22.60;99.90
14172;DHT22;7165;52.388;4.928;2023-07-24T11:23:02;22.40;99.90
14172;DHT22;7165;52.388;4.928;2023-07-24T11:25:29;22.30;99.90
14172;DHT22;7165;52.388;4.928;2023-07-24T11:27:57;22.00;99.90
14172;DHT22;7165;52.388;4.928;2023-07-24T11:30:24;21.90;99.90
14172;DHT22;7165;52.388;4.928;2023-07-24T11:32:51;21.70;99.90
14172;DHT22;7165;52.388;4.928;2023-07-24T11:35:18;21.50;99.90
14172;DHT22;7165;52.388;4.928;2023-07-24T11:37:46;21.40;99.90
14172;DHT22;7165;52.388;4.928;2023-07-24T11:40:13;21.30;99.90
14172;DHT22;7165;52.388;4.928;2023-07-24T11:42:42;21.20;99.90
14172;DHT22;7165;52.388;4.928;2023-07-24T11:45:10;21.10;99.90
14172;DHT22;7165;52.388;4.928;2023-07-24T11:47:41;21.00;99.90
14172;DHT22;7165;52.388;4.928;2023-07-24T11:50:07;20.90;99.90
14172;DHT22;7165;52.388;4.928;2023-07-24T11:52:37;20.80;99.90
14172;DHT22;7165;52.388;4.928;2023-07-24T11:55:04;20.70;99.90
14172;DHT22;7165;52.388;4.928;2023-07-24T11:57:33;20.70;99.90
14172;DHT22;7165;52.388;4.928;2023-07-24T11:59:59;20.80;99.90
14172;DHT22;7165;52.388;4.928;2023-07-24T12:02:27;20.90;99.90
14172;DHT22;7165;52.388;4.928;2023-07-24T12:04:57;21.00;99.90
14172;DHT22;7165;52.388;4.928;2023-07-24T12:07:28;21.00;99.90
14172;DHT22;7165;52.388;4.928;2023-07-24T12:09:55;21.10;99.90
14172;DHT22;7165;52.388;4.928;2023-07-24T12:12:21;21.20;99.90
14172;DHT22;7165;52.388;4.928;2023-07-24T12:14:48;21.60;99.90
14172;DHT22;7165;52.388;4.928;2023-07-24T12:17:17;21.90;99.90
14172;DHT22;7165;52.388;4.928;2023-07-24T12:19:45;22.00;99.90
14172;DHT22;7165;52.388;4.928;2023-07-24T12:22:12;22.10;99.90
14172;DHT22;7165;52.388;4.928;2023-07-24T12:24:38;22.20;99.90
14172;DHT22;7165;52.388;4.928;2023-07-24T12:27:05;22.10;99.90
14172;DHT22;7165;52.388;4.928;2023-07-24T12:29:31;22.00;99.90
14172;DHT22;7165;52.388;4.928;2023-07-24T12:31:58;21.90;99.90
14172;DHT22;7165;52.388;4.928;2023-07-24T12:34:24;21.80;99.90
14172;DHT22;7165;52.388;4.928;2023-07-24T12:36:52;22.00;99.90
14172;DHT22;7165;52.388;4.928;2023-07-24T12:39:19;22.10;99.90
14172;DHT22;7165;52.388;4.928;2023-07-24T12:41:46;22.10;99.90
14172;DHT22;7165;52.388;4.928;2023-07-24T12:44:12;22.20;99.90
14172;DHT22;7165;52.388;4.928;2023-07-24T12:46:39;22.20;99.90
14172;DHT22;7165;52.388;4.928;2023-07-24T12:49:05;22.30;99.90
14172;DHT22;7165;52.388;4.928;2023-07-24T12:51:32;22.40;99.90
14172;DHT22;7165;52.388;4.928;2023-07-24T12:54:00;22.40;99.90
14172;DHT22;7165;52.388;4.928;2023-07-24T12:56:27;22.40;99.90
14172;DHT22;7165;52.388;4.928;2023-07-24T12:58:53;22.40;99.90
14172;DHT22;7165;52.388;4.928;2023-07-24T13:01:20;22.40;99.90
14172;DHT22;7165;52.388;4.928;2023-07-24T13:03:46;22.30;99.90
14172;DHT22;7165;52.388;4.928;2023-07-24T13:06:13;22.40;99.90
14172;DHT22;7165;52.388;4.928;2023-07-24T13:08:39;22.50;99.90
14172;DHT22;7165;52.388;4.928;2023-07-24T13:11:07;22.50;99.90
14172;DHT22;7165;52.388;4.928;2023-07-24T13:13:34;22.70;99.90
14172;DHT22;7165;52.388;4.928;2023-07-24T13:16:01;23.00;99.90
14172;DHT22;7165;52.388;4.928;2023-07-24T13:18:28;23.10;99.90
14172;DHT22;7165;52.388;4.928;2023-07-24T13:20:55;23.20;99.90
14172;DHT22;7165;52.388;4.928;2023-07-24T13:23:21;23.30;99.90
14172;DHT22;7165;52.388;4.928;2023-07-24T13:25:48;23.10;99.90
14172;DHT22;7165;52.388;4.928;2023-07-24T13:28:17;22.90;99.90
14172;DHT22;7165;52.388;4.928;2023-07-24T13:30:43;22.50;99.90
14172;DHT22;7165;52.388;4.928;2023-07-24T13:33:10;22.30;99.90
14172;DHT22;7165;52.388;4.928;2023-07-24T13:35:37;22.10;99.90
14172;DHT22;7165;52.388;4.928;2023-07-24T13:38:03;22.00;99.90
14172;DHT22;7165;52.388;4.928;2023-07-24T13:40:30;22.10;99.90
14172;DHT22;7165;52.388;4.928;2023-07-24T13:42:56;22.00;99.90
14172;DHT22;7165;52.388;4.928;2023-07-24T13:45:24;22.00;99.90
14172;DHT22;7165;52.388;4.928;2023-07-24T13:47:51;22.20;99.90
14172;DHT22;7165;52.388;4.928;2023-07-24T13:50:17;22.30;99.90
14172;DHT22;7165;52.388;4.928;2023-07-24T13:52:44;22.10;99.90
14172;DHT22;7165;52.388;4.928;2023-07-24T13:55:10;21.80;99.90
14172;DHT22;7165;52.388;4.928;2023-07-24T13:57:37;21.40;99.90
14172;DHT22;7165;52.388;4.928;2023-07-24T14:00:04;21.10;99.90
14172;DHT22;7165;52.388;4.928;2023-07-24T14:02:32;21.00;99.90
14172;DHT22;7165;52.388;4.928;2023-07-24T14:04:59;20.90;99.90
14172;DHT22;7165;52.388;4.928;2023-07-24T14:07:25;20.80;99.90
14172;DHT22;7165;52.388;4.928;2023-07-24T14:09:52;20.80;99.90
14172;DHT22;7165;52.388;4.928;2023-07-24T14:12:18;20.70;99.90
14172;DHT22;7165;52.388;4.928;2023-07-24T14:14:45;20.60;99.90
14172;DHT22;7165;52.388;4.928;2023-07-24T14:17:11;20.50;99.90
14172;DHT22;7165;52.388;4.928;2023-07-24T14:19:41;20.20;99.90
14172;DHT22;7165;52.388;4.928;2023-07-24T14:22:07;20.00;99.90
14172;DHT22;7165;52.388;4.928;2023-07-24T14:24:34;19.70;99.90
14172;DHT22;7165;52.388;4.928;2023-07-24T14:27:00;19.40;99.90
14172;DHT22;7165;52.388;4.928;2023-07-24T14:29:35;19.30;99.90
14172;DHT22;7165;52.388;4.928;2023-07-24T14:32:01;19.30;99.90
14172;DHT22;7165;52.388;4.928;2023-07-24T14:34:28;19.20;99.90
14172;DHT22;7165;52.388;4.928;2023-07-24T14:36:56;19.20;99.90
14172;DHT22;7165;52.388;4.928;2023-07-24T14:39:22;19.00;99.90
14172;DHT22;7165;52.388;4.928;2023-07-24T14:41:49;18.80;99.90
14172;DHT22;7165;52.388;4.928;2023-07-24T14:44:15;18.60;99.90
14172;DHT22;7165;52.388;4.928;2023-07-24T14:46:42;18.50;99.90
14172;DHT22;7165;52.388;4.928;2023-07-24T14:49:08;18.30;99.90
14172;DHT22;7165;52.388;4.928;2023-07-24T14:51:35;18.20;99.90
14172;DHT22;7165;52.388;4.928;2023-07-24T14:54:03;18.10;99.90
14172;DHT22;7165;52.388;4.928;2023-07-24T14:56:29;18.00;99.90
14172;DHT22;7165;52.388;4.928;2023-07-24T14:58:57;18.00;99.90
14172;DHT22;7165;52.388;4.928;2023-07-24T15:01:24;18.00;99.90
14172;DHT22;7165;52.388;4.928;2023-07-24T15:03:53;18.00;99.90
14172;DHT22;7165;52.388;4.928;2023-07-24T15:06:19;18.00;99.90
14172;DHT22;7165;52.388;4.928;2023-07-24T15:08:46;17.90;99.90
14172;DHT22;7165;52.388;4.928;2023-07-24T15:11:13;17.80;99.90
14172;DHT22;7165;52.388;4.928;2023-07-24T15:13:40;17.70;99.90
14172;DHT22;7165;52.388;4.928;2023-07-24T15:16:07;17.70;99.90
14172;DHT22;7165;52.388;4.928;2023-07-24T15:18:34;17.70;99.90
14172;DHT22;7165;52.388;4.928;2023-07-24T15:21:01;17.60;99.90
14172;DHT22;7165;52.388;4.928;2023-07-24T15:23:27;17.60;99.90
14172;DHT22;7165;52.388;4.928;2023-07-24T15:25:54;17.50;99.90
14172;DHT22;7165;52.388;4.928;2023-07-24T15:28:22;17.60;99.90
14172;DHT22;7165;52.388;4.928;2023-07-24T15:30:48;17.60;99.90
14172;DHT22;7165;52.388;4.928;2023-07-24T15:33:16;17.50;99.90
14172;DHT22;7165;52.388;4.928;2023-07-24T15:35:42;17.50;99.90
14172;DHT22;7165;52.388;4.928;2023-07-24T15:38:09;17.40;99.90
14172;DHT22;7165;52.388;4.928;2023-07-24T15:40:37;17.40;99.90
14172;DHT22;7165;52.388;4.928;2023-07-24T15:43:05;17.30;99.90